createdAt,value
2019-01-14T00:00:26.582Z,96809.97
2019-01-14T00:02:55.264Z,96798.81
2019-01-14T00:05:24.780Z,96810.16
2019-01-14T00:07:53.453Z,96821.48
2019-01-14T00:10:21.917Z,96824.09
2019-01-14T00:12:50.444Z,96811.02
2019-01-14T00:15:19.222Z,96808.55
2019-01-14T00:17:47.905Z,96829.38
2019-01-14T00:20:16.619Z,96825.70
2019-01-14T00:22:45.207Z,96830.58
2019-01-14T00:25:14.255Z,96828.54
2019-01-14T00:27:42.757Z,96807.34
2019-01-14T00:30:14.148Z,96836.20
2019-01-14T00:32:42.669Z,96830.48
2019-01-14T00:35:11.189Z,96828.39
2019-01-14T00:37:39.715Z,96842.52
2019-01-14T00:40:11.615Z,96846.66
2019-01-14T00:42:41.283Z,96847.22
2019-01-14T00:45:10.360Z,96841.73
2019-01-14T00:47:38.817Z,96843.04
2019-01-14T00:50:10.351Z,96842.62
2019-01-14T00:52:39.010Z,96865.94
2019-01-14T00:55:08.528Z,96852.59
2019-01-14T00:57:37.210Z,96863.11
2019-01-14T01:00:17.822Z,96858.91
2019-01-14T01:02:46.380Z,96866.80
2019-01-14T01:05:15.686Z,96856.70
2019-01-14T01:07:44.419Z,96850.64
2019-01-14T01:10:15.810Z,96857.85
2019-01-14T01:12:44.286Z,96860.09
2019-01-14T01:15:15.200Z,96864.59
2019-01-14T01:17:43.692Z,96856.28
2019-01-14T01:20:15.218Z,96865.77
2019-01-14T01:22:43.820Z,96867.75
2019-01-14T01:25:12.547Z,96864.30
2019-01-14T01:27:41.087Z,96865.50
2019-01-14T01:30:12.658Z,96879.78
2019-01-14T01:32:41.166Z,96871.73
2019-01-14T01:35:11.481Z,96877.83
2019-01-14T01:37:40.115Z,96871.09
2019-01-14T01:40:16.971Z,96871.45
2019-01-14T01:42:45.724Z,96876.89
2019-01-14T01:45:17.918Z,96884.36
2019-01-14T01:47:46.553Z,96867.53
2019-01-14T01:50:17.032Z,96879.83
2019-01-14T01:52:45.637Z,96876.27
2019-01-14T01:55:14.440Z,96871.41
2019-01-14T01:57:43.044Z,96883.67
2019-01-14T02:00:14.894Z,96880.48
2019-01-14T02:02:43.359Z,96877.55
2019-01-14T02:05:12.746Z,96880.43
2019-01-14T02:07:42.158Z,96890.89
2019-01-14T02:10:17.278Z,96919.77
2019-01-14T02:12:46.160Z,96896.49
2019-01-14T02:15:17.055Z,96903.97
2019-01-14T02:17:45.664Z,96889.02
2019-01-14T02:20:16.649Z,96884.11
2019-01-14T02:22:45.289Z,96905.41
2019-01-14T02:25:15.106Z,96913.26
2019-01-14T02:27:43.763Z,96903.41
2019-01-14T02:30:17.751Z,96899.48
2019-01-14T02:32:46.313Z,96917.23
2019-01-14T02:35:16.718Z,96877.16
2019-01-14T02:37:45.307Z,96939.01
2019-01-14T02:40:18.752Z,96912.63
2019-01-14T02:42:47.357Z,96921.22
2019-01-14T02:45:16.571Z,96914.05
2019-01-14T02:47:46.120Z,96925.09
2019-01-14T02:50:15.473Z,96968.58
2019-01-14T02:52:44.026Z,97011.86
2019-01-14T02:55:13.117Z,96945.34
2019-01-14T02:57:41.978Z,96973.36
2019-01-14T03:00:14.123Z,96988.73
2019-01-14T03:02:42.650Z,96981.37
2019-01-14T03:05:11.306Z,96967.66
2019-01-14T03:07:40.028Z,96972.78
2019-01-14T03:10:10.649Z,96993.27
2019-01-14T03:12:39.678Z,96958.05
2019-01-14T03:15:10.383Z,96968.00
2019-01-14T03:17:38.900Z,96986.51
2019-01-14T03:20:10.718Z,96982.71
2019-01-14T03:22:39.300Z,96995.38
2019-01-14T03:25:09.115Z,96991.37
2019-01-14T03:27:37.760Z,97023.67
2019-01-14T03:30:09.451Z,97026.31
2019-01-14T03:32:37.980Z,97021.50
2019-01-14T03:35:07.929Z,97026.73
2019-01-14T03:37:36.395Z,97056.04
2019-01-14T03:40:08.154Z,97068.58
2019-01-14T03:42:36.747Z,97077.73
2019-01-14T03:45:05.844Z,97086.59
2019-01-14T03:47:34.305Z,97056.46
2019-01-14T03:50:05.471Z,97081.27
2019-01-14T03:52:33.917Z,97097.69
2019-01-14T03:55:02.720Z,97100.52
2019-01-14T03:57:31.473Z,97066.34
2019-01-14T03:59:59.930Z,97074.41
2019-01-14T04:02:28.396Z,97116.56
2019-01-14T04:04:56.950Z,97104.97
2019-01-14T04:07:25.424Z,97081.84
2019-01-14T04:09:53.893Z,97086.12
2019-01-14T04:12:22.478Z,97121.39
2019-01-14T04:14:50.924Z,97130.47
2019-01-14T04:17:22.123Z,97109.66
2019-01-14T04:19:52.225Z,97120.29
2019-01-14T04:22:20.784Z,97123.45
2019-01-14T04:24:49.248Z,97124.77
2019-01-14T04:27:17.784Z,97135.40
2019-01-14T04:29:46.257Z,97142.77
2019-01-14T04:32:14.746Z,97129.80
2019-01-14T04:34:43.263Z,97141.64
2019-01-14T04:37:11.727Z,97140.45
2019-01-14T04:39:40.208Z,97152.74
2019-01-14T04:42:08.929Z,97144.38
2019-01-14T04:44:38.365Z,97159.81
2019-01-14T04:47:06.901Z,97151.22
2019-01-14T04:49:35.436Z,97178.41
2019-01-14T04:52:04.930Z,97148.98
2019-01-14T04:54:33.613Z,97158.61
2019-01-14T04:57:02.133Z,97172.58
2019-01-14T04:59:30.624Z,97181.27
2019-01-14T05:01:59.157Z,97164.58
2019-01-14T05:04:27.679Z,97173.72
2019-01-14T05:06:56.270Z,97193.38
2019-01-14T05:09:24.841Z,97199.56
2019-01-14T05:11:53.373Z,97211.57
2019-01-14T05:14:21.830Z,97241.41
2019-01-14T05:16:50.298Z,97240.66
2019-01-14T05:19:18.994Z,97233.84
2019-01-14T05:21:47.635Z,97252.33
2019-01-14T05:24:16.100Z,97264.08
2019-01-14T05:26:45.672Z,97251.75
2019-01-14T05:29:14.215Z,97250.06
2019-01-14T05:31:42.831Z,97255.08
2019-01-14T05:34:11.444Z,97261.98
2019-01-14T05:36:41.011Z,97275.58
2019-01-14T05:39:09.646Z,97259.92
2019-01-14T05:41:38.427Z,97287.15
2019-01-14T05:44:06.965Z,97297.39
2019-01-14T05:46:35.490Z,97310.27
2019-01-14T05:49:04.020Z,97310.81
2019-01-14T05:51:32.507Z,97366.81
2019-01-14T05:54:01.833Z,97340.87
2019-01-14T05:56:30.361Z,97377.88
2019-01-14T05:58:58.919Z,97359.69
2019-01-14T06:01:28.055Z,97364.70
2019-01-14T06:03:56.514Z,97364.53
2019-01-14T06:06:24.975Z,97363.06
2019-01-14T06:08:53.512Z,97381.50
2019-01-14T06:11:22.031Z,97388.58
2019-01-14T06:13:50.509Z,97395.48
2019-01-14T06:16:19.053Z,97411.14
2019-01-14T06:18:47.576Z,97412.53
2019-01-14T06:21:16.331Z,97428.32
2019-01-14T06:23:44.790Z,97412.98
2019-01-14T06:26:13.316Z,97419.73
2019-01-14T06:28:41.914Z,97426.59
2019-01-14T06:31:10.391Z,97422.10
2019-01-14T06:33:38.927Z,97429.17
2019-01-14T06:36:07.455Z,97438.30
2019-01-14T06:38:36.032Z,97507.30
2019-01-14T06:41:04.619Z,97483.63
2019-01-14T06:43:34.065Z,97491.73
2019-01-14T06:46:03.570Z,97485.82
2019-01-14T06:48:32.242Z,97489.19
2019-01-14T06:51:01.706Z,97477.77
2019-01-14T06:53:30.175Z,97498.70
2019-01-14T06:55:58.833Z,97508.84
2019-01-14T06:58:27.335Z,97528.38
2019-01-14T07:00:55.976Z,97509.70
2019-01-14T07:03:24.523Z,97517.20
2019-01-14T07:05:53.145Z,97533.06
2019-01-14T07:08:21.627Z,97535.52
2019-01-14T07:10:52.084Z,97510.00
2019-01-14T07:13:21.606Z,97514.75
2019-01-14T07:15:50.084Z,97514.06
2019-01-14T07:18:18.628Z,97524.66
2019-01-14T07:20:47.112Z,97524.40
2019-01-14T07:23:15.694Z,97528.62
2019-01-14T07:25:44.352Z,97540.88
2019-01-14T07:28:12.846Z,97537.51
2019-01-14T07:30:41.486Z,97536.00
2019-01-14T07:33:10.019Z,97541.21
2019-01-14T07:35:38.555Z,97575.94
2019-01-14T07:38:07.297Z,97538.42
2019-01-14T07:40:35.883Z,97571.11
2019-01-14T07:43:04.501Z,97578.08
2019-01-14T07:45:32.983Z,97564.49
2019-01-14T07:48:01.681Z,97572.02
2019-01-14T07:50:30.196Z,97590.41
2019-01-14T07:52:58.721Z,97586.81
2019-01-14T07:55:27.322Z,97576.50
2019-01-14T07:57:56.919Z,97586.87
2019-01-14T08:00:25.918Z,97589.04
2019-01-14T08:02:54.600Z,97594.25
2019-01-14T08:05:23.205Z,97585.20
2019-01-14T08:07:51.835Z,97617.76
2019-01-14T08:10:20.499Z,97622.60
2019-01-14T08:12:49.106Z,97628.19
2019-01-14T08:15:20.859Z,97647.36
2019-01-14T08:24:53.513Z,97709.66
2019-01-14T08:27:21.985Z,97690.20
2019-01-14T08:29:50.612Z,97710.67
2019-01-14T08:32:19.135Z,97698.58
2019-01-14T08:34:47.740Z,97683.00
2019-01-14T08:37:16.330Z,97718.25
2019-01-14T08:39:44.909Z,97700.19
2019-01-14T08:42:13.743Z,97732.04
2019-01-14T08:44:43.221Z,97692.94
2019-01-14T08:47:11.739Z,97729.33
2019-01-14T08:49:40.312Z,97719.63
2019-01-14T08:52:08.927Z,97739.13
2019-01-14T08:54:37.504Z,97720.30
2019-01-14T08:57:06.090Z,97717.00
2019-01-14T08:59:35.608Z,97701.28
2019-01-14T09:02:04.266Z,97741.38
2019-01-14T09:04:32.762Z,97714.34
2019-01-14T09:07:01.331Z,97741.80
2019-01-14T09:09:29.888Z,97719.47
2019-01-14T09:12:00.357Z,97697.05
2019-01-14T09:14:29.386Z,97753.19
2019-01-14T09:16:57.973Z,97796.12
2019-01-14T09:19:26.491Z,97788.19
2019-01-14T09:21:55.023Z,97739.91
2019-01-14T09:24:23.608Z,97743.78
2019-01-14T09:26:52.218Z,97777.52
2019-01-14T09:29:20.750Z,97767.86
2019-01-14T09:31:49.779Z,97745.06
2019-01-14T09:34:18.642Z,97775.24
2019-01-14T09:36:47.167Z,97764.98
2019-01-14T09:39:15.687Z,97811.88
2019-01-14T09:41:44.246Z,97777.16
2019-01-14T09:44:12.849Z,97771.80
2019-01-14T09:46:41.465Z,97786.25
2019-01-14T09:49:09.910Z,97778.79
2019-01-14T09:51:39.342Z,97793.11
2019-01-14T09:54:08.109Z,97793.39
2019-01-14T09:56:36.648Z,97800.00
2019-01-14T09:59:05.171Z,97800.00
2019-01-14T10:01:34.654Z,97786.16
2019-01-14T10:04:04.220Z,97826.63
2019-01-14T10:06:32.912Z,97802.31
2019-01-14T10:09:01.428Z,97790.13
2019-01-14T10:11:29.885Z,97790.13
2019-01-14T10:13:58.347Z,97822.48
2019-01-14T10:16:27.934Z,97782.85
2019-01-14T10:18:56.404Z,97810.23
2019-01-14T10:21:24.903Z,97791.37
2019-01-14T10:23:53.515Z,97778.53
2019-01-14T10:26:22.056Z,97780.89
2019-01-14T10:28:50.519Z,97870.41
2019-01-14T10:31:20.056Z,97810.86
2019-01-14T10:33:48.608Z,97799.27
2019-01-14T10:36:17.080Z,97786.10
2019-01-14T10:38:50.347Z,97816.33
2019-01-14T10:41:16.212Z,97837.18
2019-01-14T10:43:44.790Z,97797.10
2019-01-14T10:46:13.337Z,97803.83
2019-01-14T10:48:41.868Z,97802.66
2019-01-14T10:51:10.400Z,97810.41
2019-01-14T10:53:38.908Z,97812.63
2019-01-14T10:56:07.442Z,97850.32
2019-01-14T10:58:35.894Z,97813.93
2019-01-14T11:01:04.637Z,97820.45
2019-01-14T11:03:34.121Z,97843.33
2019-01-14T11:06:02.809Z,97860.23
2019-01-14T11:08:32.372Z,97825.66
2019-01-14T11:11:00.834Z,97819.02
2019-01-14T11:13:29.292Z,97816.93
2019-01-14T11:15:58.278Z,97830.14
2019-01-14T11:18:26.827Z,97824.62
2019-01-14T11:20:55.342Z,97858.20
2019-01-14T11:23:23.872Z,97856.41
2019-01-14T11:25:52.402Z,97898.17
2019-01-14T11:28:21.002Z,97851.78
2019-01-14T11:30:49.567Z,97878.43
2019-01-14T11:33:19.054Z,97859.04
2019-01-14T11:35:48.651Z,97850.28
2019-01-14T11:38:39.002Z,97853.67
2019-01-14T11:41:07.532Z,97846.17
2019-01-14T11:43:35.991Z,97879.76
2019-01-14T11:46:04.844Z,97849.47
2019-01-14T11:48:33.440Z,97864.26
2019-01-14T11:51:02.153Z,97855.27
2019-01-14T11:53:30.788Z,97853.20
2019-01-14T11:55:59.244Z,97863.94
2019-01-14T11:58:27.767Z,97897.87
2019-01-14T12:00:56.356Z,97899.88
2019-01-14T12:03:24.949Z,97871.11
2019-01-14T12:05:53.589Z,97905.36
2019-01-14T12:08:22.249Z,97920.16
2019-01-14T12:10:50.867Z,97892.16
2019-01-14T12:13:19.328Z,97907.18
2019-01-14T12:15:47.906Z,97877.66
2019-01-14T12:18:17.385Z,97885.28
2019-01-14T12:20:46.830Z,97889.77
2019-01-14T12:23:15.444Z,97864.45
2019-01-14T12:25:43.925Z,97898.73
2019-01-14T12:28:12.455Z,97957.47
2019-01-14T12:30:41.777Z,97907.63
2019-01-14T12:33:10.447Z,97901.78
2019-01-14T12:35:38.971Z,97896.63
2019-01-14T12:38:08.133Z,97901.39
2019-01-14T12:40:36.647Z,97892.36
2019-01-14T12:43:05.445Z,97936.55
2019-01-14T12:45:34.410Z,97918.86
2019-01-14T12:48:03.091Z,97905.44
2019-01-14T12:50:31.630Z,97919.09
2019-01-14T12:53:00.247Z,97923.48
2019-01-14T12:55:28.779Z,97949.53
2019-01-14T12:57:57.293Z,97904.49
2019-01-14T13:00:27.771Z,97939.42
2019-01-14T13:02:58.520Z,97932.87
2019-01-14T13:05:28.543Z,97952.70
2019-01-14T13:07:58.015Z,97949.32
2019-01-14T13:10:26.471Z,97960.97
2019-01-14T13:12:55.041Z,97982.64
2019-01-14T13:15:25.588Z,97980.55
2019-01-14T13:17:54.315Z,97982.84
2019-01-14T13:20:23.418Z,97976.71
2019-01-14T13:22:52.174Z,97981.35
2019-01-14T13:25:21.190Z,97984.62
2019-01-14T13:27:49.992Z,97993.69
2019-01-14T13:30:24.155Z,97992.57
2019-01-14T13:32:52.782Z,97993.66
2019-01-14T13:35:21.284Z,97994.53
2019-01-14T13:37:56.495Z,98002.95
2019-01-14T13:40:25.049Z,98007.80
2019-01-14T13:42:53.600Z,98000.16
2019-01-14T13:45:23.249Z,97998.66
2019-01-14T13:47:51.759Z,97997.53
2019-01-14T13:50:22.842Z,97989.90
2019-01-14T13:52:51.496Z,97993.98
2019-01-14T13:55:20.586Z,98016.92
2019-01-14T13:57:49.174Z,98027.51
2019-01-14T14:00:20.240Z,97998.50
2019-01-14T14:02:48.791Z,98000.09
2019-01-14T14:05:17.303Z,98006.32
2019-01-14T14:07:45.898Z,98009.58
2019-01-14T14:10:21.178Z,98017.52
2019-01-14T14:12:49.719Z,98076.86
2019-01-14T14:15:19.289Z,98070.03
2019-01-14T14:17:47.999Z,98057.05
2019-01-14T14:20:18.109Z,98082.74
2019-01-14T14:22:46.632Z,98103.52
2019-01-14T14:25:15.263Z,98115.06
2019-01-14T14:27:43.784Z,98124.72
2019-01-14T14:30:21.226Z,98133.03
2019-01-14T14:32:49.682Z,98143.19
2019-01-14T14:35:21.047Z,98152.26
2019-01-14T14:37:50.695Z,98135.66
2019-01-14T14:40:19.166Z,98166.94
2019-01-14T14:42:47.697Z,98166.94
2019-01-14T14:45:16.657Z,98184.41
2019-01-14T14:47:45.279Z,98196.62
2019-01-14T14:50:18.436Z,98190.89
2019-01-14T14:52:47.394Z,98221.36
2019-01-14T14:55:16.533Z,98214.97
2019-01-14T14:57:45.161Z,98252.90
2019-01-14T15:00:21.305Z,98250.78
2019-01-14T15:02:49.944Z,98259.36
2019-01-14T15:05:19.437Z,98252.95
2019-01-14T15:07:48.303Z,98277.23
2019-01-14T15:10:18.962Z,98263.55
2019-01-14T15:12:49.394Z,98266.61
2019-01-14T15:15:19.676Z,98261.09
2019-01-14T15:17:48.293Z,98236.27
2019-01-14T15:20:19.341Z,98225.24
2019-01-14T15:22:47.949Z,98214.92
2019-01-14T15:25:16.504Z,98200.74
2019-01-14T15:27:45.931Z,98233.87
2019-01-14T15:30:20.284Z,98206.64
2019-01-14T15:32:48.812Z,98232.30
2019-01-14T15:35:17.385Z,98228.62
2019-01-14T15:37:46.840Z,98211.70
2019-01-14T15:40:17.552Z,98284.78
2019-01-14T15:42:46.266Z,98255.80
2019-01-14T15:45:18.833Z,98256.95
2019-01-14T15:47:47.451Z,98254.72
2019-01-14T15:50:16.169Z,98295.20
2019-01-14T15:52:44.773Z,98289.13
2019-01-14T15:55:21.598Z,98291.27
2019-01-14T15:57:51.536Z,98315.34
2019-01-14T16:00:20.461Z,98306.27
2019-01-14T16:02:49.229Z,98310.95
2019-01-14T16:05:19.153Z,98319.42
2019-01-14T16:07:48.043Z,98326.67
2019-01-14T16:10:22.911Z,98319.59
2019-01-14T16:12:51.437Z,98376.47
2019-01-14T16:15:20.835Z,98360.86
2019-01-14T16:17:49.467Z,98356.52
2019-01-14T16:20:22.629Z,98361.72
2019-01-14T16:22:51.095Z,98372.13
2019-01-14T16:25:19.623Z,98388.61
2019-01-14T16:27:48.475Z,98383.49
2019-01-14T16:30:19.256Z,98380.08
2019-01-14T16:32:48.825Z,98400.80
2019-01-14T16:35:17.494Z,98412.84
2019-01-14T16:37:46.499Z,98424.11
2019-01-14T16:40:18.237Z,98402.58
2019-01-14T16:42:46.417Z,98413.03
2019-01-14T16:45:20.384Z,98421.25
2019-01-14T16:47:48.872Z,98434.30
2019-01-14T16:50:17.787Z,98427.80
2019-01-14T16:52:46.340Z,98434.30
2019-01-14T16:55:16.565Z,98434.77
2019-01-14T16:57:45.113Z,98452.52
2019-01-14T17:00:16.373Z,98452.99
2019-01-14T17:02:45.149Z,98455.14
2019-01-14T17:05:14.500Z,98456.89
2019-01-14T17:07:43.136Z,98460.85
2019-01-14T17:10:16.229Z,98485.88
2019-01-14T17:12:45.005Z,98477.24
2019-01-14T17:15:14.121Z,98487.59
2019-01-14T17:17:43.556Z,98504.38
2019-01-14T17:20:18.368Z,98520.75
2019-01-14T17:22:47.475Z,98503.56
2019-01-14T17:25:16.783Z,98526.84
2019-01-14T17:27:45.447Z,98530.26
2019-01-14T17:30:15.984Z,98521.17
2019-01-14T17:32:44.971Z,98521.12
2019-01-14T17:35:14.603Z,98538.88
2019-01-14T17:37:43.247Z,98532.03
2019-01-14T17:40:14.299Z,98537.63
2019-01-14T17:42:42.832Z,98553.12
2019-01-14T17:45:11.839Z,98556.98
2019-01-14T17:47:40.647Z,98558.25
2019-01-14T17:50:12.182Z,98558.19
2019-01-14T17:52:40.719Z,98561.72
2019-01-14T17:55:09.613Z,98569.52
2019-01-14T17:57:38.146Z,98577.27
2019-01-14T18:00:18.612Z,98573.86
2019-01-14T18:02:47.276Z,98593.73
2019-01-14T18:05:15.920Z,98580.84
2019-01-14T18:07:44.487Z,98586.50
2019-01-14T18:10:15.623Z,98593.39
2019-01-14T18:12:44.162Z,98595.12
2019-01-14T18:15:13.208Z,98618.33
2019-01-14T18:17:42.935Z,98611.06
2019-01-14T18:20:14.234Z,98608.47
2019-01-14T18:22:43.721Z,98603.30
2019-01-14T18:25:12.518Z,98616.18
2019-01-14T18:27:41.026Z,98611.86
2019-01-14T18:30:18.012Z,98622.16
2019-01-14T18:32:46.755Z,98633.30
2019-01-14T18:35:17.181Z,98625.94
2019-01-14T18:37:46.666Z,98631.53
2019-01-14T18:40:16.665Z,98633.23
2019-01-14T18:42:45.274Z,98642.14
2019-01-14T18:45:15.850Z,98648.47
2019-01-14T18:47:44.578Z,98641.45
2019-01-14T18:50:15.483Z,98652.55
2019-01-14T18:52:44.087Z,98665.41
2019-01-14T18:55:12.896Z,98649.05
2019-01-14T18:57:41.348Z,98662.86
2019-01-14T19:00:13.295Z,98669.72
2019-01-14T19:02:41.767Z,98671.35
2019-01-14T19:05:10.311Z,98686.88
2019-01-14T19:07:38.899Z,98672.14
2019-01-14T19:10:10.192Z,98690.24
2019-01-14T19:12:38.715Z,98683.23
2019-01-14T19:15:10.318Z,98716.47
2019-01-14T19:17:38.891Z,98697.03
2019-01-14T19:20:10.406Z,98714.38
2019-01-14T19:22:39.167Z,98694.58
2019-01-14T19:25:08.556Z,98714.54
2019-01-14T19:27:37.100Z,98717.53
2019-01-14T19:30:08.673Z,98716.69
2019-01-14T19:32:38.550Z,98712.42
2019-01-14T19:35:07.614Z,98727.11
2019-01-14T19:37:36.630Z,98746.56
2019-01-14T19:40:08.162Z,98721.99
2019-01-14T19:42:36.626Z,98731.45
2019-01-14T19:45:06.787Z,98742.70
2019-01-14T19:47:35.253Z,98735.48
2019-01-14T19:50:07.043Z,98740.62
2019-01-14T19:52:35.575Z,98757.48
2019-01-14T19:55:05.075Z,98741.48
2019-01-14T19:57:33.625Z,98734.16
2019-01-14T20:00:02.151Z,98728.14
2019-01-14T20:02:30.647Z,98738.10
2019-01-14T20:04:59.156Z,98735.02
2019-01-14T20:07:27.702Z,98740.09
2019-01-14T20:09:56.165Z,98748.29
2019-01-14T20:12:24.809Z,98741.77
2019-01-14T20:14:53.338Z,98730.58
2019-01-14T20:17:21.806Z,98740.44
2019-01-14T20:19:50.289Z,98740.41
2019-01-14T20:22:18.980Z,98749.06
2019-01-14T20:24:48.628Z,98735.58
2019-01-14T20:27:17.111Z,98754.62
2019-01-14T20:29:45.653Z,98772.24
2019-01-14T20:32:14.201Z,98739.39
2019-01-14T20:34:42.744Z,98761.78
2019-01-14T20:37:12.406Z,98775.15
2019-01-14T20:39:40.934Z,98786.34
2019-01-14T20:42:09.471Z,98760.45
2019-01-14T20:44:38.010Z,98772.14
2019-01-14T20:47:07.451Z,98771.33
2019-01-14T20:49:35.920Z,98784.75
2019-01-14T20:52:04.505Z,98768.33
2019-01-14T20:54:33.057Z,98764.46
2019-01-14T20:57:04.791Z,98780.47
2019-01-14T20:59:38.350Z,98761.09
2019-01-14T21:02:04.988Z,98784.34
2019-01-14T21:04:33.465Z,98802.53
2019-01-14T21:07:02.213Z,98781.86
2019-01-14T21:09:30.684Z,98798.70
2019-01-14T21:11:59.169Z,98783.20
2019-01-14T21:14:29.076Z,98804.39
2019-01-14T21:16:57.579Z,98791.46
2019-01-14T21:19:26.073Z,98800.91
2019-01-14T21:21:54.727Z,98802.66
2019-01-14T21:24:24.179Z,98806.20
2019-01-14T21:26:52.893Z,98803.20
2019-01-14T21:29:25.938Z,98802.48
2019-01-14T21:31:51.697Z,98810.74
2019-01-14T21:34:20.243Z,98808.28
2019-01-14T21:36:48.897Z,98815.20
2019-01-14T21:39:17.382Z,98805.36
2019-01-14T21:41:45.965Z,98820.88
2019-01-14T21:44:14.495Z,98820.92
2019-01-14T21:46:43.158Z,98828.27
2019-01-14T21:49:11.623Z,98818.83
2019-01-14T21:51:40.321Z,98852.42
2019-01-14T21:54:08.917Z,98832.56
2019-01-14T21:56:38.910Z,98826.48
2019-01-14T21:59:07.687Z,98831.61
2019-01-14T22:01:36.158Z,98848.84
2019-01-14T22:04:04.983Z,98846.22
2019-01-14T22:06:33.519Z,98835.36
2019-01-14T22:09:02.163Z,98849.55
2019-01-14T22:11:30.623Z,98869.36
2019-01-14T22:13:59.221Z,98845.64
2019-01-14T22:16:27.859Z,98853.83
2019-01-14T22:18:57.335Z,98850.35
2019-01-14T22:21:25.850Z,98864.15
2019-01-14T22:23:54.405Z,98871.85
2019-01-14T22:26:22.919Z,98880.47
2019-01-14T22:28:52.361Z,98869.59
2019-01-14T22:31:20.877Z,98850.06
2019-01-14T22:33:49.337Z,98852.50
2019-01-14T22:36:17.888Z,98858.05
2019-01-14T22:38:46.431Z,98861.86
2019-01-14T22:41:15.890Z,98872.98
2019-01-14T22:43:44.444Z,98893.17
2019-01-14T22:46:13.012Z,98877.50
2019-01-14T22:48:41.484Z,98878.66
2019-01-14T22:51:10.452Z,98876.89
2019-01-14T22:53:39.003Z,98879.39
2019-01-14T22:56:07.734Z,98891.88
2019-01-14T22:58:36.303Z,98880.56
2019-01-14T23:01:09.473Z,98895.20
2019-01-14T23:03:39.081Z,98895.59
2019-01-14T23:06:07.614Z,98877.39
2019-01-14T23:08:36.223Z,98879.98
2019-01-14T23:11:05.150Z,98903.30
2019-01-14T23:13:33.725Z,98902.36
2019-01-14T23:16:02.255Z,98895.42
2019-01-14T23:18:30.716Z,98888.06
2019-01-14T23:20:59.355Z,98904.88
2019-01-14T23:23:27.827Z,98886.69
2019-01-14T23:25:58.279Z,98902.69
2019-01-14T23:28:26.965Z,98912.56
2019-01-14T23:30:56.436Z,98901.34
2019-01-14T23:33:24.991Z,98898.67
2019-01-14T23:35:53.580Z,98899.97
2019-01-14T23:38:22.042Z,98899.97
2019-01-14T23:40:50.817Z,98918.09
2019-01-14T23:43:19.485Z,98897.31
2019-01-14T23:45:48.007Z,98917.66
2019-01-14T23:48:16.502Z,98907.77
2019-01-14T23:50:45.047Z,98907.77
2019-01-14T23:53:13.527Z,98910.31
2019-01-14T23:55:41.980Z,98900.48
2019-01-14T23:58:10.501Z,98908.98
